San Francisco International Airport
KSFO : now visible

Airfield :











YOU CAN JOIN US ON...

 
LOGIN :

Register | Disclaimer

   EN    FR    IT 

 









Legend :    VFR   Marginal VFR   IFR   Intensive IFR   Very Intensive IFR
Visi :
Ceiling :
>= 8 km
>= 3000ft
5 to 8 km
1000 to 3000 ft
1500m to 5 km
500 to 1000 ft
800 to 1500m
200 to 500 ft
< 800m
< 200 ft
Symbols :   Thunderstorms  Fog  Heavy snow  Heavy precipitations  Wind > 20 kt






- Airport Elevation : 13 ft
- IATA code : SFO


KSFO - San Francisco International

CURRENT METAR :
  • 271456Z 25010KT 10SM FEW005 SCT013 13/09 A3005 RMK AO2 SLP177 T01330089 53013

EXPIRED METARs :
  • 271356Z 23007KT 10SM FEW005 SCT012 12/09 A3004 RMK AO2 SLP172 T01220089
  • 271256Z 24006KT 10SM FEW004 SCT013 SCT100 12/08 A3002 RMK AO2 SLP166 T01170083
  • 271156Z 29003KT 10SM FEW012 11/08 A3002 RMK AO2 SLP164 T01110078 10128 20111 56004
  • 271056Z 24003KT 10SM FEW005 FEW014 12/08 A3002 RMK AO2 SLP164 T01170083

TAF KSFO
Valid from the 27 at 12:00 until the 28 at 18:00 UTC


271120Z 2712/2818 28007KT P6SM FEW005
TEMPO 2712/2716 BKN010
FM272100 27015G22KT P6SM FEW010
FM280400 27014KT P6SM SCT010
FM280800 25008KT P6SM BKN010
KZOA FIR / North America



MET'MAP, your aeronautical weather chart ! - Copyright ORBIFLY December 2007 - Disclaimer

ORBIFLY MET'MAP TEAM :

Programming & Development : Alexandra Zaïnal
Original concept : Baudouin d'Aumeries
Technical & hardware support : Manuel Goepfert
Assistance : Marc-Olivier Méhu




SOURCES & CREDITS :

   NOAA       Earth
Advisory